• Join FlightAware (Why Join?)
  • Login
  • US Flag 
01:38PM EDT


 

Airport Tracker/Info


-or-


 

Live Flight TrackerFlight Track Log ✈ AAR369 ✈ 10-May-2012 ✈ RKSI / ICN - ZGGG / CAN

Flight Track Log - Related Links

Times and Time Zones

All times are in EDT time to prevent confusion due to time zone crossing. See the AAR369 flight status page for this flight to view local times or setup timezone preferences in your user account.

Time Position Orientation Groundspeed Altitude Reporting Facility
EDT Latitude Longitude Course Direction KTS MPH feet Rate Location/Type
07:54PM 37.4309 126.4066 222° Southwest  Level Estimated
07:55PM 37.3593 126.3244 222° Southwest  Level Estimated
07:56PM 37.2876 126.2423 222° Southwest  Level Estimated
07:57PM 37.2159 126.1605 222° Southwest  Level Estimated
07:58PM 37.1441 126.0787 222° Southwest  Level Estimated
07:59PM 37.0722 125.9971 222° Southwest  Level Estimated
08:00PM 37.0003 125.9157 222° Southwest  Level Estimated
08:01PM 36.9284 125.8344 222° Southwest  Level Estimated
08:02PM 36.8564 125.7533 222° Southwest  Level Estimated
08:03PM 36.7843 125.6723 222° Southwest  Level Estimated
08:04PM 36.7122 125.5915 222° Southwest  Level Estimated
08:05PM 36.6400 125.5108 222° Southwest  Level Estimated
08:06PM 36.5678 125.4303 222° Southwest  Level Estimated
08:07PM 36.4955 125.3500 222° Southwest  Level Estimated
08:08PM 36.4232 125.2697 222° Southwest  Level Estimated
08:09PM 36.3508 125.1897 222° Southwest  Level Estimated
08:10PM 36.2783 125.1097 222° Southwest  Level Estimated
08:11PM 36.2058 125.0300 222° Southwest  Level Estimated
08:12PM 36.1333 124.9504 222° Southwest  Level Estimated
08:13PM 36.0607 124.8709 221° Southwest  Level Estimated
08:14PM 35.9880 124.7916 221° Southwest  Level Estimated
08:15PM 35.9153 124.7124 221° Southwest  Level Estimated
08:16PM 35.8425 124.6333 221° Southwest  Level Estimated
08:17PM 35.7697 124.5544 221° Southwest  Level Estimated
08:18PM 35.6969 124.4757 221° Southwest  Level Estimated
08:19PM 35.6240 124.3971 221° Southwest  Level Estimated
08:20PM 35.5510 124.3186 221° Southwest  Level Estimated
08:21PM 35.4780 124.2403 221° Southwest  Level Estimated
08:22PM 35.4049 124.1621 221° Southwest  Level Estimated
08:23PM 35.3318 124.0841 221° Southwest  Level Estimated
08:24PM 35.2586 124.0062 221° Southwest  Level Estimated
08:25PM 35.1854 123.9285 221° Southwest  Level Estimated
08:26PM 35.1121 123.8509 221° Southwest  Level Estimated
08:27PM 35.0388 123.7734 221° Southwest  Level Estimated
08:28PM 34.9655 123.6960 221° Southwest  Level Estimated
08:29PM 34.8921 123.6188 221° Southwest  Level Estimated
08:30PM 34.8186 123.5418 221° Southwest  Level Estimated
08:31PM 34.7451 123.4649 221° Southwest  Level Estimated
08:32PM 34.6715 123.3881 221° Southwest  Level Estimated
08:33PM 34.5979 123.3114 221° Southwest  Level Estimated
08:34PM 34.5243 123.2349 221° Southwest  Level Estimated
08:35PM 34.4506 123.1585 220° Southwest  Level Estimated
08:36PM 34.3768 123.0823 220° Southwest  Level Estimated
08:37PM 34.3030 123.0062 220° Southwest  Level Estimated
08:38PM 34.2292 122.9302 220° Southwest  Level Estimated
08:39PM 34.1553 122.8544 220° Southwest  Level Estimated
08:40PM 34.0813 122.7787 220° Southwest  Level Estimated
08:41PM 34.0074 122.7031 220° Southwest  Level Estimated
08:42PM 33.9333 122.6276 220° Southwest  Level Estimated
08:43PM 33.8593 122.5523 220° Southwest  Level Estimated
08:44PM 33.7851 122.4771 220° Southwest  Level Estimated
08:45PM 33.7110 122.4021 220° Southwest  Level Estimated
08:46PM 33.6368 122.3272 220° Southwest  Level Estimated
08:47PM 33.5625 122.2524 220° Southwest  Level Estimated
08:48PM 33.4882 122.1777 220° Southwest  Level Estimated
08:49PM 33.4138 122.1032 220° Southwest  Level Estimated
08:50PM 33.3395 122.0288 220° Southwest  Level Estimated
08:51PM 33.2650 121.9545 220° Southwest  Level Estimated
08:52PM 33.1905 121.8803 220° Southwest  Level Estimated
08:53PM 33.1160 121.8063 220° Southwest  Level Estimated
08:54PM 33.0415 121.7324 220° Southwest  Level Estimated
08:55PM 32.9668 121.6586 220° Southwest  Level Estimated
08:56PM 32.8922 121.5850 220° Southwest  Level Estimated
08:57PM 32.8175 121.5114 220° Southwest  Level Estimated
08:58PM 32.7427 121.4380 220° Southwest  Level Estimated
08:59PM 32.6680 121.3647 219° Southwest  Level Estimated
09:00PM 32.5931 121.2916 219° Southwest  Level Estimated
09:01PM 32.5183 121.2185 219° Southwest  Level Estimated
09:02PM 32.4434 121.1456 219° Southwest  Level Estimated
09:03PM 32.3684 121.0728 219° Southwest  Level Estimated
09:04PM 32.2934 121.0001 219° Southwest  Level Estimated
09:05PM 32.2184 120.9276 219° Southwest  Level Estimated
09:06PM 32.1433 120.8551 219° Southwest  Level Estimated
09:07PM 32.0682 120.7828 219° Southwest  Level Estimated
09:08PM 31.9930 120.7106 219° Southwest  Level Estimated
09:09PM 31.9178 120.6385 219° Southwest  Level Estimated
09:10PM 31.8426 120.5666 219° Southwest  Level Estimated
09:11PM 31.7673 120.4947 219° Southwest  Level Estimated
09:12PM 31.6920 120.4230 219° Southwest  Level Estimated
09:13PM 31.6166 120.3514 219° Southwest  Level Estimated
09:14PM 31.5412 120.2799 219° Southwest  Level Estimated
09:15PM 31.4658 120.2085 219° Southwest  Level Estimated
09:16PM 31.3903 120.1373 219° Southwest  Level Estimated
09:17PM 31.3148 120.0661 219° Southwest  Level Estimated
09:18PM 31.2392 119.9951 219° Southwest  Level Estimated
09:19PM 31.1636 119.9241 219° Southwest  Level Estimated
09:20PM 31.0880 119.8533 219° Southwest  Level Estimated
09:21PM 31.0123 119.7826 219° Southwest  Level Estimated
09:22PM 30.9366 119.7121 219° Southwest  Level Estimated
09:23PM 30.8608 119.6416 219° Southwest  Level Estimated
09:24PM 30.7851 119.5712 219° Southwest  Level Estimated
09:25PM 30.7092 119.5010 219° Southwest  Level Estimated
09:26PM 30.6334 119.4308 218° Southwest  Level Estimated
09:27PM 30.5575 119.3608 218° Southwest  Level Estimated
09:28PM 30.4815 119.2909 218° Southwest  Level Estimated
09:29PM 30.4056 119.2211 218° Southwest  Level Estimated
09:30PM 30.3295 119.1514 218° Southwest  Level Estimated
09:31PM 30.2535 119.0818 218° Southwest  Level Estimated
09:32PM 30.1774 119.0123 218° Southwest  Level Estimated
09:33PM 30.1013 118.9429 218° Southwest  Level Estimated
09:34PM 30.0251 118.8736 218° Southwest  Level Estimated
09:35PM 29.9489 118.8044 218° Southwest  Level Estimated
09:36PM 29.8727 118.7354 218° Southwest  Level Estimated
09:37PM 29.7964 118.6664 218° Southwest  Level Estimated
09:38PM 29.7201 118.5976 218° Southwest  Level Estimated
09:39PM 29.6438 118.5288 218° Southwest  Level Estimated
09:40PM 29.5674 118.4602 218° Southwest  Level Estimated
09:41PM 29.4910 118.3916 218° Southwest  Level Estimated
09:42PM 29.4145 118.3232 218° Southwest  Level Estimated
09:43PM 29.3381 118.2549 218° Southwest  Level Estimated
09:44PM 29.2615 118.1867 218° Southwest  Level Estimated
09:45PM 29.1850 118.1185 218° Southwest  Level Estimated
09:46PM 29.1084 118.0505 218° Southwest  Level Estimated
09:47PM 29.0318 117.9826 218° Southwest  Level Estimated
09:48PM 28.9551 117.9147 218° Southwest  Level Estimated
09:49PM 28.8784 117.8470 218° Southwest  Level Estimated
09:50PM 28.8017 117.7794 218° Southwest  Level Estimated
09:51PM 28.7250 117.7119 218° Southwest  Level Estimated
09:52PM 28.6482 117.6445 218° Southwest  Level Estimated
09:53PM 28.5714 117.5771 218° Southwest  Level Estimated
09:54PM 28.4945 117.5099 218° Southwest  Level Estimated
09:55PM 28.4176 117.4428 217° Southwest  Level Estimated
09:56PM 28.3407 117.3757 217° Southwest  Level Estimated
09:57PM 28.2637 117.3088 217° Southwest  Level Estimated
09:58PM 28.1868 117.2420 217° Southwest  Level Estimated
09:59PM 28.1097 117.1752 217° Southwest  Level Estimated
10:00PM 28.0327 117.1086 217° Southwest  Level Estimated
10:01PM 27.9556 117.0420 217° Southwest  Level Estimated
10:02PM 27.8785 116.9755 217° Southwest  Level Estimated
10:03PM 27.8013 116.9092 217° Southwest  Level Estimated
10:04PM 27.7242 116.8429 217° Southwest  Level Estimated
10:05PM 27.6469 116.7767 217° Southwest  Level Estimated
10:06PM 27.5697 116.7107 217° Southwest  Level Estimated
10:07PM 27.4924 116.6447 217° Southwest  Level Estimated
10:08PM 27.4151 116.5788 217° Southwest  Level Estimated
10:09PM 27.3378 116.5130 217° Southwest  Level Estimated
10:10PM 27.2605 116.4473 217° Southwest  Level Estimated
10:11PM 27.1831 116.3816 217° Southwest  Level Estimated
10:12PM 27.1056 116.3161 217° Southwest  Level Estimated
10:13PM 27.0282 116.2507 217° Southwest  Level Estimated
10:14PM 26.9507 116.1853 217° Southwest  Level Estimated
10:15PM 26.8731 116.1201 217° Southwest  Level Estimated
10:16PM 26.7956 116.0549 217° Southwest  Level Estimated
10:17PM 26.7180 115.9898 217° Southwest  Level Estimated
10:18PM 26.6404 115.9248 217° Southwest  Level Estimated
10:19PM 26.5628 115.8599 217° Southwest  Level Estimated
10:20PM 26.4851 115.7951 217° Southwest  Level Estimated
10:21PM 26.4074 115.7304 217° Southwest  Level Estimated
10:22PM 26.3297 115.6657 217° Southwest  Level Estimated
10:23PM 26.2519 115.6012 217° Southwest  Level Estimated
10:24PM 26.1742 115.5367 217° Southwest  Level Estimated
10:25PM 26.0964 115.4723 217° Southwest  Level Estimated
10:26PM 26.0185 115.4080 217° Southwest  Level Estimated
10:27PM 25.9407 115.3438 217° Southwest  Level Estimated
10:28PM 25.8628 115.2797 217° Southwest  Level Estimated
10:29PM 25.7848 115.2157 216° Southwest  Level Estimated
10:30PM 25.7069 115.1517 216° Southwest  Level Estimated
10:31PM 25.6289 115.0878 216° Southwest  Level Estimated
10:32PM 25.5509 115.0240 216° Southwest  Level Estimated
10:33PM 25.4729 114.9603 216° Southwest  Level Estimated
10:34PM 25.3948 114.8967 216° Southwest  Level Estimated
10:35PM 25.3167 114.8332 216° Southwest  Level Estimated
10:36PM 25.2386 114.7697 216° Southwest  Level Estimated
10:37PM 25.1604 114.7063 216° Southwest  Level Estimated
10:38PM 25.0823 114.6430 216° Southwest  Level Estimated
10:39PM 25.0041 114.5798 216° Southwest  Level Estimated
10:40PM 24.9259 114.5167 216° Southwest  Level Estimated
10:41PM 24.8476 114.4536 216° Southwest  Level Estimated
10:42PM 24.7693 114.3906 216° Southwest  Level Estimated
10:43PM 24.6910 114.3277 216° Southwest  Level Estimated
10:44PM 24.6127 114.2649 216° Southwest  Level Estimated
10:45PM 24.5343 114.2022 216° Southwest  Level Estimated
10:46PM 24.4560 114.1395 216° Southwest  Level Estimated
10:47PM 24.3776 114.0769 216° Southwest  Level Estimated
10:48PM 24.2991 114.0144 216° Southwest  Level Estimated
10:49PM 24.2207 113.9520 216° Southwest  Level Estimated
10:50PM 24.1422 113.8896 216° Southwest  Level Estimated
10:51PM 24.0637 113.8274 216° Southwest  Level Estimated
10:52PM 23.9851 113.7652 216° Southwest  Level Estimated
10:53PM 23.9066 113.7030 216° Southwest  Level Estimated
10:54PM 23.8280 113.6410 216° Southwest  Level Estimated
10:55PM 23.7494 113.5790 216° Southwest  Level Estimated
10:56PM 23.6708 113.5171 216° Southwest  Level Estimated
10:57PM 23.5921 113.4553 216° Southwest  Level Estimated
10:58PM 23.5134 113.3935 216° Southwest  Level Estimated
10:59PM 23.4347 113.3319 216° Southwest  Level Estimated
11:00PM 23.3560 113.2703 36° Northeast  Level Estimated
11:01PM 23.4347 113.3319 216° Southwest  Level Estimated
11:02PM 23.3560 113.2703 36° Northeast  Level Estimated
11:03PM 23.4347 113.3319 216° Southwest  Level Estimated
11:04PM 23.3560 113.2703 36° Northeast  Level Estimated
11:05PM 23.4347 113.3319 216° Southwest  Level Estimated
11:06PM 23.3560 113.2703 36° Northeast  Level Estimated
11:07PM 23.4347 113.3319 216° Southwest  Level Estimated
11:08PM 23.3560 113.2703 36° Northeast  Level Estimated
11:09PM 23.4347 113.3319 216° Southwest  Level Estimated
11:10PM 23.3560 113.2703 36° Northeast  Level Estimated
11:11PM 23.4347 113.3319 216° Southwest  Level Estimated
11:12PM 23.3560 113.2703 36° Northeast  Level Estimated
11:13PM 23.4347 113.3319 216° Southwest  Level Estimated
11:14PM 23.3560 113.2703 36° Northeast  Level Estimated
11:15PM 23.4347 113.3319 36° Northeast  Level Estimated